sensor_id;sensor_type;location;lat;lon;timestamp;pressure;altitude;pressure_sealevel;temperature
49785;BMP280;35679;38.732;-121.358;2023-05-29T00:00:44;100553.88;;;26.16
49785;BMP280;35679;38.732;-121.358;2023-05-29T00:03:33;100559.28;;;26.16
49785;BMP280;35679;38.732;-121.358;2023-05-29T00:06:24;100555.47;;;26.17
49785;BMP280;35679;38.732;-121.358;2023-05-29T00:09:13;100551.16;;;26.21
49785;BMP280;35679;38.732;-121.358;2023-05-29T00:12:03;100551.16;;;26.21
49785;BMP280;35679;38.732;-121.358;2023-05-29T00:14:52;100542.50;;;26.19
49785;BMP280;35679;38.732;-121.358;2023-05-29T00:17:42;100548.97;;;26.23
49785;BMP280;35679;38.732;-121.358;2023-05-29T00:20:32;100545.19;;;26.19
49785;BMP280;35679;38.732;-121.358;2023-05-29T00:23:23;100551.16;;;26.21
49785;BMP280;35679;38.732;-121.358;2023-05-29T00:26:12;100552.75;;;26.22
49785;BMP280;35679;38.732;-121.358;2023-05-29T00:29:02;100547.63;;;26.25
49785;BMP280;35679;38.732;-121.358;2023-05-29T00:31:53;100556.00;;;26.24
49785;BMP280;35679;38.732;-121.358;2023-05-29T00:34:42;100555.22;;;26.23
49785;BMP280;35679;38.732;-121.358;2023-05-29T00:37:32;100563.56;;;26.22
49785;BMP280;35679;38.732;-121.358;2023-05-29T00:40:21;100560.06;;;26.21
49785;BMP280;35679;38.732;-121.358;2023-05-29T00:43:11;100564.41;;;26.22
49785;BMP280;35679;38.732;-121.358;2023-05-29T00:46:00;100563.03;;;26.30
49785;BMP280;35679;38.732;-121.358;2023-05-29T00:48:50;100557.63;;;26.30
49785;BMP280;35679;38.732;-121.358;2023-05-29T00:51:40;100556.56;;;26.26
49785;BMP280;35679;38.732;-121.358;2023-05-29T00:54:30;100545.75;;;26.21
49785;BMP280;35679;38.732;-121.358;2023-05-29T00:57:19;100547.91;;;26.19
49785;BMP280;35679;38.732;-121.358;2023-05-29T01:00:10;100552.25;;;26.20
49785;BMP280;35679;38.732;-121.358;2023-05-29T01:03:04;100550.63;;;26.19
49785;BMP280;35679;38.732;-121.358;2023-05-29T01:05:56;100547.91;;;26.14
49785;BMP280;35679;38.732;-121.358;2023-05-29T01:08:46;100553.88;;;26.16
49785;BMP280;35679;38.732;-121.358;2023-05-29T01:12:09;100556.81;;;26.14
49785;BMP280;35679;38.732;-121.358;2023-05-29T01:15:43;100553.88;;;26.11
49785;BMP280;35679;38.732;-121.358;2023-05-29T01:18:51;100556.81;;;26.14
49785;BMP280;35679;38.732;-121.358;2023-05-29T01:22:11;100551.69;;;26.13
49785;BMP280;35679;38.732;-121.358;2023-05-29T01:25:25;100557.38;;;26.11
49785;BMP280;35679;38.732;-121.358;2023-05-29T01:28:21;100553.34;;;26.09
49785;BMP280;35679;38.732;-121.358;2023-05-29T01:31:12;100567.94;;;26.08
49785;BMP280;35679;38.732;-121.358;2023-05-29T01:34:02;100568.47;;;26.05
49785;BMP280;35679;38.732;-121.358;2023-05-29T01:36:52;100570.91;;;26.01
49785;BMP280;35679;38.732;-121.358;2023-05-29T01:39:42;100569.84;;;26.02
49785;BMP280;35679;38.732;-121.358;2023-05-29T01:42:32;100568.50;;;26.00
49785;BMP280;35679;38.732;-121.358;2023-05-29T01:45:21;100568.50;;;26.00
49785;BMP280;35679;38.732;-121.358;2023-05-29T01:48:11;100562.25;;;25.99
49785;BMP280;35679;38.732;-121.358;2023-05-29T01:51:01;100567.94;;;25.98
49785;BMP280;35679;38.732;-121.358;2023-05-29T01:53:50;100566.31;;;25.97
49785;BMP280;35679;38.732;-121.358;2023-05-29T01:56:41;100570.91;;;25.96
49785;BMP280;35679;38.732;-121.358;2023-05-29T01:59:32;100568.50;;;25.95
49785;BMP280;35679;38.732;-121.358;2023-05-29T02:02:22;100562.25;;;25.94
49785;BMP280;35679;38.732;-121.358;2023-05-29T02:05:12;100563.31;;;25.93
49785;BMP280;35679;38.732;-121.358;2023-05-29T02:08:01;100568.22;;;25.91
49785;BMP280;35679;38.732;-121.358;2023-05-29T02:10:51;100564.69;;;25.91
49785;BMP280;35679;38.732;-121.358;2023-05-29T02:13:42;100557.66;;;25.85
49785;BMP280;35679;38.732;-121.358;2023-05-29T02:16:32;100565.75;;;25.85
49785;BMP280;35679;38.732;-121.358;2023-05-29T02:19:22;100568.22;;;25.86
49785;BMP280;35679;38.732;-121.358;2023-05-29T02:22:14;100558.75;;;25.84
49785;BMP280;35679;38.732;-121.358;2023-05-29T02:25:03;100569.56;;;25.79
49785;BMP280;35679;38.732;-121.358;2023-05-29T02:27:53;100568.22;;;25.77
49785;BMP280;35679;38.732;-121.358;2023-05-29T02:30:42;100562.53;;;25.78
49785;BMP280;35679;38.732;-121.358;2023-05-29T02:33:32;100561.69;;;25.78
49785;BMP280;35679;38.732;-121.358;2023-05-29T02:36:21;100567.66;;;25.75
49785;BMP280;35679;38.732;-121.358;2023-05-29T02:39:11;100571.72;;;25.77
49785;BMP280;35679;38.732;-121.358;2023-05-29T02:42:01;100582.25;;;25.74
49785;BMP280;35679;38.732;-121.358;2023-05-29T02:44:50;100577.91;;;25.73
49785;BMP280;35679;38.732;-121.358;2023-05-29T02:47:40;100586.81;;;25.68
49785;BMP280;35679;38.732;-121.358;2023-05-29T02:50:29;100588.97;;;25.66
49785;BMP280;35679;38.732;-121.358;2023-05-29T02:53:19;100596.53;;;25.64
49785;BMP280;35679;38.732;-121.358;2023-05-29T02:56:09;100601.38;;;25.62
49785;BMP280;35679;38.732;-121.358;2023-05-29T02:58:58;100598.13;;;25.60
49785;BMP280;35679;38.732;-121.358;2023-05-29T03:01:49;100602.75;;;25.60
49785;BMP280;35679;38.732;-121.358;2023-05-29T03:04:39;100607.56;;;25.53
49785;BMP280;35679;38.732;-121.358;2023-05-29T03:07:29;100610.84;;;25.55
49785;BMP280;35679;38.732;-121.358;2023-05-29T03:10:18;100618.09;;;25.49
49785;BMP280;35679;38.732;-121.358;2023-05-29T03:13:08;100621.34;;;25.46
49785;BMP280;35679;38.732;-121.358;2023-05-29T03:16:01;100625.38;;;25.44
49785;BMP280;35679;38.732;-121.358;2023-05-29T03:18:51;100630.78;;;25.44
49785;BMP280;35679;38.732;-121.358;2023-05-29T03:21:40;100627.03;;;25.45
49785;BMP280;35679;38.732;-121.358;2023-05-29T03:24:30;100636.75;;;25.41
49785;BMP280;35679;38.732;-121.358;2023-05-29T03:27:22;100627.25;;;25.38
49785;BMP280;35679;38.732;-121.358;2023-05-29T03:30:20;100642.91;;;25.36
49785;BMP280;35679;38.732;-121.358;2023-05-29T03:33:11;100647.78;;;25.34
49785;BMP280;35679;38.732;-121.358;2023-05-29T03:36:23;100645.34;;;25.33
49785;BMP280;35679;38.732;-121.358;2023-05-29T03:39:13;100658.28;;;25.31
49785;BMP280;35679;38.732;-121.358;2023-05-29T03:42:02;100649.34;;;25.25
49785;BMP280;35679;38.732;-121.358;2023-05-29T03:44:52;100647.72;;;25.24
49785;BMP280;35679;38.732;-121.358;2023-05-29T03:47:43;100653.13;;;25.24
49785;BMP280;35679;38.732;-121.358;2023-05-29T03:50:33;100649.06;;;25.22
49785;BMP280;35679;38.732;-121.358;2023-05-29T03:53:23;100653.94;;;25.20
49785;BMP280;35679;38.732;-121.358;2023-05-29T03:56:13;100655.25;;;25.17
49785;BMP280;35679;38.732;-121.358;2023-05-29T03:59:02;100663.88;;;25.14
49785;BMP280;35679;38.732;-121.358;2023-05-29T04:01:52;100656.06;;;25.13
49785;BMP280;35679;38.732;-121.358;2023-05-29T04:04:41;100659.03;;;25.12
49785;BMP280;35679;38.732;-121.358;2023-05-29T04:07:32;100653.59;;;25.07
49785;BMP280;35679;38.732;-121.358;2023-05-29T04:10:21;100654.63;;;25.06
49785;BMP280;35679;38.732;-121.358;2023-05-29T04:13:12;100651.66;;;25.02
49785;BMP280;35679;38.732;-121.358;2023-05-29T04:16:02;100653.25;;;24.98
49785;BMP280;35679;38.732;-121.358;2023-05-29T04:18:51;100647.56;;;24.95
49785;BMP280;35679;38.732;-121.358;2023-05-29T04:21:43;100641.09;;;24.96
49785;BMP280;35679;38.732;-121.358;2023-05-29T04:24:33;100646.72;;;24.94
49785;BMP280;35679;38.732;-121.358;2023-05-29T04:27:24;100648.06;;;24.92
49785;BMP280;35679;38.732;-121.358;2023-05-29T04:30:14;100653.19;;;24.88
49785;BMP280;35679;38.732;-121.358;2023-05-29T04:33:07;100658.31;;;24.85
49785;BMP280;35679;38.732;-121.358;2023-05-29T04:36:02;100658.31;;;24.85
49785;BMP280;35679;38.732;-121.358;2023-05-29T04:38:53;100667.47;;;24.84
49785;BMP280;35679;38.732;-121.358;2023-05-29T04:41:43;100668.53;;;24.83
49785;BMP280;35679;38.732;-121.358;2023-05-29T04:44:36;100666.38;;;24.80
49785;BMP280;35679;38.732;-121.358;2023-05-29T04:47:26;100672.56;;;24.80
49785;BMP280;35679;38.732;-121.358;2023-05-29T04:50:17;100671.47;;;24.76
49785;BMP280;35679;38.732;-121.358;2023-05-29T04:53:07;100678.19;;;24.74
49785;BMP280;35679;38.732;-121.358;2023-05-29T04:55:57;100689.50;;;24.71
49785;BMP280;35679;38.732;-121.358;2023-05-29T04:58:47;100684.63;;;24.68
49785;BMP280;35679;38.732;-121.358;2023-05-29T05:01:36;100685.16;;;24.65
49785;BMP280;35679;38.732;-121.358;2023-05-29T05:04:26;100687.03;;;24.64
49785;BMP280;35679;38.732;-121.358;2023-05-29T05:07:16;100694.63;;;24.67
49785;BMP280;35679;38.732;-121.358;2023-05-29T05:10:07;100696.50;;;24.67
49785;BMP280;35679;38.732;-121.358;2023-05-29T05:12:57;100708.63;;;24.64
49785;BMP280;35679;38.732;-121.358;2023-05-29T05:15:47;100720.19;;;24.60
49785;BMP280;35679;38.732;-121.358;2023-05-29T05:18:36;100711.53;;;24.58
49785;BMP280;35679;38.732;-121.358;2023-05-29T05:21:27;100696.44;;;24.62
49785;BMP280;35679;38.732;-121.358;2023-05-29T05:24:22;100699.94;;;24.57
49785;BMP280;35679;38.732;-121.358;2023-05-29T05:27:11;100700.44;;;24.54
49785;BMP280;35679;38.732;-121.358;2023-05-29T05:30:04;100700.13;;;24.51
49785;BMP280;35679;38.732;-121.358;2023-05-29T05:32:55;100691.50;;;24.49
49785;BMP280;35679;38.732;-121.358;2023-05-29T05:35:45;100690.63;;;24.44
49785;BMP280;35679;38.732;-121.358;2023-05-29T05:38:35;100679.31;;;24.42
49785;BMP280;35679;38.732;-121.358;2023-05-29T05:41:24;100690.34;;;24.40
49785;BMP280;35679;38.732;-121.358;2023-05-29T05:44:14;100686.50;;;24.36
49785;BMP280;35679;38.732;-121.358;2023-05-29T05:47:12;100684.34;;;24.33
49785;BMP280;35679;38.732;-121.358;2023-05-29T05:50:02;100685.09;;;24.29
49785;BMP280;35679;38.732;-121.358;2023-05-29T05:52:51;100681.84;;;24.27
49785;BMP280;35679;38.732;-121.358;2023-05-29T05:55:41;100676.47;;;24.27
49785;BMP280;35679;38.732;-121.358;2023-05-29T05:58:30;100682.66;;;24.27
49785;BMP280;35679;38.732;-121.358;2023-05-29T06:01:20;100680.44;;;24.24
49785;BMP280;35679;38.732;-121.358;2023-05-29T06:04:10;100693.66;;;24.21
49785;BMP280;35679;38.732;-121.358;2023-05-29T06:07:03;100696.03;;;24.17
49785;BMP280;35679;38.732;-121.358;2023-05-29T06:09:53;100703.03;;;24.13
49785;BMP280;35679;38.732;-121.358;2023-05-29T06:12:42;100710.53;;;24.11
49785;BMP280;35679;38.732;-121.358;2023-05-29T06:15:39;100698.91;;;24.06
49785;BMP280;35679;38.732;-121.358;2023-05-29T06:18:29;100702.41;;;24.06
49785;BMP280;35679;38.732;-121.358;2023-05-29T06:21:18;100708.31;;;24.03
49785;BMP280;35679;38.732;-121.358;2023-05-29T06:24:12;100713.16;;;24.01
49785;BMP280;35679;38.732;-121.358;2023-05-29T06:27:05;100720.91;;;23.98
49785;BMP280;35679;38.732;-121.358;2023-05-29T06:29:56;100718.97;;;23.93
49785;BMP280;35679;38.732;-121.358;2023-05-29T06:32:45;100722.75;;;23.92
49785;BMP280;35679;38.732;-121.358;2023-05-29T06:35:35;100732.69;;;23.92
49785;BMP280;35679;38.732;-121.358;2023-05-29T06:38:24;100724.09;;;23.90
49785;BMP280;35679;38.732;-121.358;2023-05-29T06:41:14;100719.44;;;23.85
49785;BMP280;35679;38.732;-121.358;2023-05-29T06:44:03;100717.53;;;23.86
49785;BMP280;35679;38.732;-121.358;2023-05-29T06:46:52;100713.25;;;23.85
49785;BMP280;35679;38.732;-121.358;2023-05-29T06:49:42;100722.13;;;23.85
49785;BMP280;35679;38.732;-121.358;2023-05-29T06:52:31;100710.25;;;23.81
49785;BMP280;35679;38.732;-121.358;2023-05-29T06:55:50;100726.34;;;23.77
49785;BMP280;35679;38.732;-121.358;2023-05-29T06:58:40;100713.88;;;23.71
49785;BMP280;35679;38.732;-121.358;2023-05-29T07:01:30;100715.16;;;23.68
49785;BMP280;35679;38.732;-121.358;2023-05-29T07:04:22;100716.47;;;23.66
49785;BMP280;35679;38.732;-121.358;2023-05-29T07:07:11;100727.53;;;23.64
49785;BMP280;35679;38.732;-121.358;2023-05-29T07:10:01;100733.97;;;23.63
49785;BMP280;35679;38.732;-121.358;2023-05-29T07:12:50;100737.16;;;23.60
49785;BMP280;35679;38.732;-121.358;2023-05-29T07:15:40;100739.56;;;23.57
49785;BMP280;35679;38.732;-121.358;2023-05-29T07:18:31;100732.75;;;23.54
49785;BMP280;35679;38.732;-121.358;2023-05-29T07:21:21;100735.16;;;23.51
49785;BMP280;35679;38.732;-121.358;2023-05-29T07:24:11;100724.63;;;23.49
49785;BMP280;35679;38.732;-121.358;2023-05-29T07:27:00;100725.94;;;23.47
49785;BMP280;35679;38.732;-121.358;2023-05-29T07:29:49;100721.63;;;23.46
49785;BMP280;35679;38.732;-121.358;2023-05-29T07:32:39;100707.28;;;23.40
49785;BMP280;35679;38.732;-121.358;2023-05-29T07:35:29;100711.03;;;23.39
49785;BMP280;35679;38.732;-121.358;2023-05-29T07:38:23;100722.63;;;23.40
49785;BMP280;35679;38.732;-121.358;2023-05-29T07:41:15;100716.13;;;23.36
49785;BMP280;35679;38.732;-121.358;2023-05-29T07:44:13;100717.66;;;23.32
49785;BMP280;35679;38.732;-121.358;2023-05-29T07:47:03;100712.78;;;23.29
49785;BMP280;35679;38.732;-121.358;2023-05-29T07:50:00;100708.47;;;23.28
49785;BMP280;35679;38.732;-121.358;2023-05-29T07:52:49;100701.69;;;23.25
49785;BMP280;35679;38.732;-121.358;2023-05-29T07:55:39;100700.91;;;23.25
49785;BMP280;35679;38.732;-121.358;2023-05-29T07:58:30;100691.44;;;23.22
49785;BMP280;35679;38.732;-121.358;2023-05-29T08:01:20;100685.47;;;23.20
49785;BMP280;35679;38.732;-121.358;2023-05-29T08:04:11;100693.28;;;23.22
49785;BMP280;35679;38.732;-121.358;2023-05-29T08:07:01;100686.00;;;23.17
49785;BMP280;35679;38.732;-121.358;2023-05-29T08:09:53;100687.53;;;23.13
49785;BMP280;35679;38.732;-121.358;2023-05-29T08:12:42;100692.38;;;23.12
49785;BMP280;35679;38.732;-121.358;2023-05-29T08:15:32;100689.94;;;23.10
49785;BMP280;35679;38.732;-121.358;2023-05-29T08:18:24;100702.06;;;23.13
49785;BMP280;35679;38.732;-121.358;2023-05-29T08:21:14;100711.47;;;23.10
49785;BMP280;35679;38.732;-121.358;2023-05-29T08:24:04;100715.69;;;23.06
49785;BMP280;35679;38.732;-121.358;2023-05-29T08:26:56;100709.19;;;23.02
49785;BMP280;35679;38.732;-121.358;2023-05-29T08:29:45;100714.19;;;22.99
49785;BMP280;35679;38.732;-121.358;2023-05-29T08:32:35;100722.28;;;22.99
49785;BMP280;35679;38.732;-121.358;2023-05-29T08:35:24;100727.09;;;22.97
49785;BMP280;35679;38.732;-121.358;2023-05-29T08:38:13;100725.47;;;22.96
49785;BMP280;35679;38.732;-121.358;2023-05-29T08:41:03;100720.56;;;22.93
49785;BMP280;35679;38.732;-121.358;2023-05-29T08:43:54;100722.72;;;22.91
49785;BMP280;35679;38.732;-121.358;2023-05-29T08:46:44;100721.31;;;22.88
49785;BMP280;35679;38.732;-121.358;2023-05-29T08:49:41;100709.41;;;22.84
49785;BMP280;35679;38.732;-121.358;2023-05-29T08:52:34;100706.16;;;22.82
49785;BMP280;35679;38.732;-121.358;2023-05-29T08:55:27;100699.94;;;22.82
49785;BMP280;35679;38.732;-121.358;2023-05-29T08:58:17;100701.25;;;22.79
49785;BMP280;35679;38.732;-121.358;2023-05-29T09:01:07;100701.25;;;22.79
49785;BMP280;35679;38.732;-121.358;2023-05-29T09:03:56;100697.44;;;22.75
49785;BMP280;35679;38.732;-121.358;2023-05-29T09:06:45;100702.28;;;22.73
49785;BMP280;35679;38.732;-121.358;2023-05-29T09:09:37;100693.63;;;22.71
49785;BMP280;35679;38.732;-121.358;2023-05-29T09:12:26;100698.41;;;22.69
49785;BMP280;35679;38.732;-121.358;2023-05-29T09:15:20;100693.88;;;22.70
49785;BMP280;35679;38.732;-121.358;2023-05-29T09:18:10;100690.84;;;22.66
49785;BMP280;35679;38.732;-121.358;2023-05-29T09:20:59;100689.47;;;22.64
49785;BMP280;35679;38.732;-121.358;2023-05-29T09:24:03;100692.41;;;22.62
49785;BMP280;35679;38.732;-121.358;2023-05-29T09:26:53;100698.00;;;22.61
49785;BMP280;35679;38.732;-121.358;2023-05-29T09:29:46;100700.41;;;22.57
49785;BMP280;35679;38.732;-121.358;2023-05-29T09:32:35;100705.19;;;22.55
49785;BMP280;35679;38.732;-121.358;2023-05-29T09:35:25;100712.47;;;22.55
49785;BMP280;35679;38.732;-121.358;2023-05-29T09:38:16;100704.88;;;22.52
49785;BMP280;35679;38.732;-121.358;2023-05-29T09:41:25;100710.50;;;22.50
49785;BMP280;35679;38.732;-121.358;2023-05-29T09:44:15;100704.31;;;22.50
49785;BMP280;35679;38.732;-121.358;2023-05-29T09:47:05;100700.00;;;22.49
49785;BMP280;35679;38.732;-121.358;2023-05-29T09:49:54;100698.59;;;22.46
49785;BMP280;35679;38.732;-121.358;2023-05-29T09:52:45;100702.59;;;22.44
49785;BMP280;35679;38.732;-121.358;2023-05-29T09:55:35;100709.03;;;22.43
49785;BMP280;35679;38.732;-121.358;2023-05-29T09:58:25;100713.03;;;22.41
49785;BMP280;35679;38.732;-121.358;2023-05-29T10:01:14;100714.88;;;22.40
49785;BMP280;35679;38.732;-121.358;2023-05-29T10:04:04;100715.13;;;22.39
49785;BMP280;35679;38.732;-121.358;2023-05-29T10:06:56;100709.19;;;22.37
49785;BMP280;35679;38.732;-121.358;2023-05-29T10:09:49;100715.88;;;22.34
49785;BMP280;35679;38.732;-121.358;2023-05-29T10:12:50;100711.78;;;22.32
49785;BMP280;35679;38.732;-121.358;2023-05-29T10:15:46;100701.50;;;22.29
49785;BMP280;35679;38.732;-121.358;2023-05-29T10:18:44;100701.97;;;22.26
49785;BMP280;35679;38.732;-121.358;2023-05-29T10:21:40;100703.03;;;22.25
49785;BMP280;35679;38.732;-121.358;2023-05-29T10:24:32;100704.09;;;22.24
49785;BMP280;35679;38.732;-121.358;2023-05-29T10:27:21;100702.69;;;22.21
49785;BMP280;35679;38.732;-121.358;2023-05-29T10:36:16;100714.75;;;22.19
49785;BMP280;35679;38.732;-121.358;2023-05-29T10:39:07;100714.66;;;22.14
49785;BMP280;35679;38.732;-121.358;2023-05-29T10:41:57;100716.28;;;22.15
49785;BMP280;35679;38.732;-121.358;2023-05-29T10:44:48;100729.16;;;22.13
49785;BMP280;35679;38.732;-121.358;2023-05-29T10:47:38;100726.22;;;22.14
49785;BMP280;35679;38.732;-121.358;2023-05-29T10:50:43;100720.53;;;22.11
49785;BMP280;35679;38.732;-121.358;2023-05-29T10:53:34;100716.75;;;22.12
49785;BMP280;35679;38.732;-121.358;2023-05-29T10:56:29;100729.63;;;22.10
49785;BMP280;35679;38.732;-121.358;2023-05-29T10:59:19;100728.50;;;22.06
49785;BMP280;35679;38.732;-121.358;2023-05-29T11:02:09;100732.25;;;22.05
49785;BMP280;35679;38.732;-121.358;2023-05-29T11:05:18;100725.47;;;22.02
49785;BMP280;35679;38.732;-121.358;2023-05-29T11:08:12;100733.53;;;22.02
49785;BMP280;35679;38.732;-121.358;2023-05-29T11:11:03;100732.69;;;22.02
49785;BMP280;35679;38.732;-121.358;2023-05-29T11:13:55;100734.84;;;22.00
49785;BMP280;35679;38.732;-121.358;2023-05-29T11:16:45;100737.28;;;22.01
49785;BMP280;35679;38.732;-121.358;2023-05-29T11:19:35;100744.53;;;22.01
49785;BMP280;35679;38.732;-121.358;2023-05-29T11:22:32;100734.25;;;21.98
49785;BMP280;35679;38.732;-121.358;2023-05-29T11:25:23;100734.25;;;21.98
49785;BMP280;35679;38.732;-121.358;2023-05-29T11:28:13;100742.31;;;21.98
49785;BMP280;35679;38.732;-121.358;2023-05-29T11:31:08;100741.16;;;21.94
49785;BMP280;35679;38.732;-121.358;2023-05-29T11:34:01;100741.75;;;21.96
49785;BMP280;35679;38.732;-121.358;2023-05-29T11:36:53;100750.28;;;21.93
49785;BMP280;35679;38.732;-121.358;2023-05-29T11:39:42;100758.81;;;21.90
49785;BMP280;35679;38.732;-121.358;2023-05-29T11:42:32;100761.16;;;21.86
49785;BMP280;35679;38.732;-121.358;2023-05-29T11:45:22;100762.81;;;21.87
49785;BMP280;35679;38.732;-121.358;2023-05-29T11:48:12;100759.78;;;21.84
49785;BMP280;35679;38.732;-121.358;2023-05-29T11:51:03;100754.63;;;21.82
49785;BMP280;35679;38.732;-121.358;2023-05-29T11:53:54;100768.28;;;21.81
49785;BMP280;35679;38.732;-121.358;2023-05-29T11:56:47;100765.03;;;21.79
49785;BMP280;35679;38.732;-121.358;2023-05-29T11:59:38;100763.66;;;21.77
49785;BMP280;35679;38.732;-121.358;2023-05-29T12:02:30;100756.88;;;21.74
49785;BMP280;35679;38.732;-121.358;2023-05-29T12:05:20;100767.03;;;21.72
49785;BMP280;35679;38.732;-121.358;2023-05-29T12:08:10;100765.06;;;21.68
49785;BMP280;35679;38.732;-121.358;2023-05-29T12:10:59;100764.84;;;21.69
49785;BMP280;35679;38.732;-121.358;2023-05-29T12:13:58;100772.66;;;21.71
49785;BMP280;35679;38.732;-121.358;2023-05-29T12:16:51;100771.81;;;21.70
49785;BMP280;35679;38.732;-121.358;2023-05-29T12:19:40;100776.63;;;21.68
49785;BMP280;35679;38.732;-121.358;2023-05-29T12:22:37;100763.66;;;21.65
49785;BMP280;35679;38.732;-121.358;2023-05-29T12:25:27;100769.03;;;21.65
49785;BMP280;35679;38.732;-121.358;2023-05-29T12:28:17;100771.41;;;21.62
49785;BMP280;35679;38.732;-121.358;2023-05-29T12:31:08;100775.94;;;21.61
49785;BMP280;35679;38.732;-121.358;2023-05-29T12:34:08;100783.75;;;21.63
49785;BMP280;35679;38.732;-121.358;2023-05-29T12:37:05;100782.34;;;21.60
49785;BMP280;35679;38.732;-121.358;2023-05-29T12:40:10;100774.53;;;21.59
49785;BMP280;35679;38.732;-121.358;2023-05-29T12:43:02;100785.78;;;21.56
49785;BMP280;35679;38.732;-121.358;2023-05-29T12:45:55;100782.72;;;21.52
49785;BMP280;35679;38.732;-121.358;2023-05-29T12:48:45;100790.31;;;21.55
49785;BMP280;35679;38.732;-121.358;2023-05-29T12:51:34;100788.09;;;21.52
49785;BMP280;35679;38.732;-121.358;2023-05-29T12:54:24;100785.41;;;21.52
49785;BMP280;35679;38.732;-121.358;2023-05-29T12:57:13;100780.72;;;21.48
49785;BMP280;35679;38.732;-121.358;2023-05-29T13:00:03;100794.97;;;21.48
49785;BMP280;35679;38.732;-121.358;2023-05-29T13:02:53;100791.44;;;21.48
49785;BMP280;35679;38.732;-121.358;2023-05-29T13:05:43;100804.06;;;21.47
49785;BMP280;35679;38.732;-121.358;2023-05-29T13:08:32;100800.00;;;21.45
49785;BMP280;35679;38.732;-121.358;2023-05-29T13:11:22;100804.53;;;21.44
49785;BMP280;35679;38.732;-121.358;2023-05-29T13:14:11;100812.81;;;21.43
49785;BMP280;35679;38.732;-121.358;2023-05-29T13:17:00;100823.00;;;21.41
49785;BMP280;35679;38.732;-121.358;2023-05-29T13:19:50;100821.09;;;21.41
49785;BMP280;35679;38.732;-121.358;2023-05-29T13:22:40;100827.28;;;21.42
49785;BMP280;35679;38.732;-121.358;2023-05-29T13:25:29;100824.84;;;21.40
49785;BMP280;35679;38.732;-121.358;2023-05-29T13:28:19;100829.75;;;21.43
49785;BMP280;35679;38.732;-121.358;2023-05-29T13:31:08;100835.56;;;21.40
49785;BMP280;35679;38.732;-121.358;2023-05-29T13:33:57;100835.56;;;21.40
49785;BMP280;35679;38.732;-121.358;2023-05-29T13:36:47;100834.53;;;21.41
49785;BMP280;35679;38.732;-121.358;2023-05-29T13:39:36;100841.78;;;21.41
49785;BMP280;35679;38.732;-121.358;2023-05-29T13:42:25;100844.47;;;21.41
49785;BMP280;35679;38.732;-121.358;2023-05-29T13:45:15;100859.25;;;21.20
49785;BMP280;35679;38.732;-121.358;2023-05-29T13:48:04;100857.97;;;21.11
49785;BMP280;35679;38.732;-121.358;2023-05-29T13:50:53;100849.44;;;21.03
49785;BMP280;35679;38.732;-121.358;2023-05-29T13:53:43;100852.38;;;21.02
49785;BMP280;35679;38.732;-121.358;2023-05-29T13:56:32;100851.19;;;20.98
49785;BMP280;35679;38.732;-121.358;2023-05-29T13:59:21;100859.69;;;20.95
49785;BMP280;35679;38.732;-121.358;2023-05-29T14:02:11;100850.47;;;20.91
49785;BMP280;35679;38.732;-121.358;2023-05-29T14:05:01;100853.16;;;20.79
49785;BMP280;35679;38.732;-121.358;2023-05-29T14:07:50;100856.75;;;20.85
49785;BMP280;35679;38.732;-121.358;2023-05-29T14:10:39;100852.69;;;20.82
49785;BMP280;35679;38.732;-121.358;2023-05-29T14:13:29;100853.47;;;20.83
49785;BMP280;35679;38.732;-121.358;2023-05-29T14:16:18;100860.50;;;20.84
49785;BMP280;35679;38.732;-121.358;2023-05-29T14:19:08;100861.88;;;20.75
49785;BMP280;35679;38.732;-121.358;2023-05-29T14:21:57;100863.72;;;20.74
49785;BMP280;35679;38.732;-121.358;2023-05-29T14:24:48;100864.31;;;20.76
49785;BMP280;35679;38.732;-121.358;2023-05-29T14:27:37;100861.03;;;20.74
49785;BMP280;35679;38.732;-121.358;2023-05-29T14:30:27;100873.00;;;20.72
49785;BMP280;35679;38.732;-121.358;2023-05-29T14:33:16;100869.75;;;20.70
49785;BMP280;35679;38.732;-121.358;2023-05-29T14:36:05;100863.22;;;20.66
49785;BMP280;35679;38.732;-121.358;2023-05-29T14:38:55;100866.25;;;20.69
49785;BMP280;35679;38.732;-121.358;2023-05-29T14:41:44;100869.84;;;20.63
49785;BMP280;35679;38.732;-121.358;2023-05-29T14:44:33;100871.25;;;20.66
49785;BMP280;35679;38.732;-121.358;2023-05-29T14:47:23;100878.09;;;20.62
49785;BMP280;35679;38.732;-121.358;2023-05-29T14:50:12;100876.34;;;20.56
49785;BMP280;35679;38.732;-121.358;2023-05-29T14:53:04;100876.50;;;20.61
49785;BMP280;35679;38.732;-121.358;2023-05-29T14:55:54;100879.16;;;20.61
49785;BMP280;35679;38.732;-121.358;2023-05-29T14:58:45;100885.44;;;20.55
49785;BMP280;35679;38.732;-121.358;2023-05-29T15:01:34;100881.91;;;20.54
49785;BMP280;35679;38.732;-121.358;2023-05-29T15:04:24;100877.75;;;20.58
49785;BMP280;35679;38.732;-121.358;2023-05-29T15:07:13;100875.75;;;20.54
49785;BMP280;35679;38.732;-121.358;2023-05-29T15:10:03;100883.19;;;20.52
49785;BMP280;35679;38.732;-121.358;2023-05-29T15:12:53;100887.97;;;20.50
49785;BMP280;35679;38.732;-121.358;2023-05-29T15:15:45;100885.75;;;20.47
49785;BMP280;35679;38.732;-121.358;2023-05-29T15:18:35;100878.31;;;20.49
49785;BMP280;35679;38.732;-121.358;2023-05-29T15:21:24;100884.84;;;20.53
49785;BMP280;35679;38.732;-121.358;2023-05-29T15:24:14;100885.31;;;20.50
49785;BMP280;35679;38.732;-121.358;2023-05-29T15:27:03;100880.97;;;20.49
49785;BMP280;35679;38.732;-121.358;2023-05-29T15:29:53;100877.03;;;20.51
49785;BMP280;35679;38.732;-121.358;2023-05-29T15:32:43;100877.47;;;20.48
49785;BMP280;35679;38.732;-121.358;2023-05-29T15:35:33;100876.66;;;20.48
49785;BMP280;35679;38.732;-121.358;2023-05-29T15:38:25;100874.31;;;20.40